Time;durP1;ratioP1;P1;durP2;ratioP2;P2;SDS_P1;SDS_P2;PMS_P1;PMS_P2;Temp;Humidity;BMP_temperature;BMP_pressure;BME280_temperature;BME280_humidity;BME280_pressure;Samples;Min_cycle;Max_cycle;Signal;HPM_P1;HPM_P2
2022/12/18 00:01:41;;;;;;;4.20;3.90;;;15.60;57.70;;;;;;4984724;28;20408;-42
2022/12/18 00:04:11;;;;;;;3.83;3.58;;;15.60;57.90;;;;;;4986128;28;20048;-43
2022/12/18 00:06:37;;;;;;;4.30;4.00;;;15.60;57.70;;;;;;4983463;28;20505;-42
2022/12/18 00:09:03;;;;;;;4.30;4.00;;;15.60;57.60;;;;;;4987355;28;20069;-43
2022/12/18 00:11:29;;;;;;;3.78;3.58;;;15.50;57.90;;;;;;4986728;28;21146;-42
2022/12/18 00:13:57;;;;;;;3.92;3.67;;;15.60;57.80;;;;;;4986721;28;20034;-42
2022/12/18 00:16:23;;;;;;;3.90;3.70;;;15.50;57.70;;;;;;4985989;28;20042;-44
2022/12/18 00:18:50;;;;;;;4.00;3.70;;;15.50;57.70;;;;;;4983582;28;20053;-44
2022/12/18 00:21:15;;;;;;;4.10;3.80;;;15.50;57.80;;;;;;4983475;28;20515;-42
2022/12/18 00:23:42;;;;;;;3.65;3.45;;;15.40;57.90;;;;;;4986261;28;20038;-42
2022/12/18 00:26:11;;;;;;;3.55;3.25;;;15.50;57.80;;;;;;4987850;28;21967;-42
2022/12/18 00:28:37;;;;;;;3.70;3.50;;;15.50;57.90;;;;;;4984438;28;20046;-44
2022/12/18 00:31:10;;;;;;;4.05;3.75;;;15.50;57.70;;;;;;4984891;28;20527;-42
2022/12/18 00:33:35;;;;;;;3.95;3.63;;;15.50;57.80;;;;;;4984402;28;20038;-41
2022/12/18 00:36:09;;;;;;;3.50;3.30;;;15.40;57.80;;;;;;4986429;28;20054;-42
2022/12/18 00:38:35;;;;;;;4.13;3.60;;;15.40;57.60;;;;;;4986226;28;20058;-47
2022/12/18 00:41:00;;;;;;;3.70;3.40;;;15.40;57.70;;;;;;4986172;28;20052;-42
2022/12/18 00:43:26;;;;;;;3.70;3.50;;;15.50;57.50;;;;;;4986125;28;20069;-42
2022/12/18 00:45:52;;;;;;;3.53;3.33;;;15.40;57.70;;;;;;4984850;28;20486;-43
2022/12/18 00:48:17;;;;;;;3.10;2.90;;;15.30;57.80;;;;;;4985135;28;20521;-42
2022/12/18 00:50:43;;;;;;;3.45;3.25;;;15.40;57.80;;;;;;4985590;28;20088;-46
2022/12/18 00:53:09;;;;;;;3.50;3.22;;;15.30;57.80;;;;;;4987582;28;20065;-42
2022/12/18 00:55:36;;;;;;;3.58;3.38;;;15.30;57.80;;;;;;4982505;28;20567;-14
2022/12/18 00:58:02;;;;;;;3.28;3.08;;;15.30;57.80;;;;;;5009316;28;20125;-13
2022/12/18 01:00:28;;;;;;;3.22;3.03;;;15.40;57.60;;;;;;4985441;28;20105;-14
2022/12/18 01:02:53;;;;;;;3.40;3.20;;;15.40;57.40;;;;;;4986174;28;20384;-13
2022/12/18 01:05:19;;;;;;;3.33;3.13;;;15.30;57.60;;;;;;4984970;28;20066;-14
2022/12/18 01:07:44;;;;;;;3.20;3.00;;;15.30;57.80;;;;;;4984743;28;20084;-14
2022/12/18 01:10:11;;;;;;;3.47;3.28;;;15.30;57.70;;;;;;4983943;28;20129;-12
2022/12/18 01:12:36;;;;;;;3.40;3.20;;;15.30;57.60;;;;;;4984680;28;20077;-13
2022/12/18 01:15:02;;;;;;;3.40;3.20;;;15.30;57.80;;;;;;4982122;28;20504;-12
2022/12/18 01:17:28;;;;;;;3.60;3.40;;;15.30;57.60;;;;;;4987147;28;20125;-13
2022/12/18 01:19:54;;;;;;;3.83;3.63;;;15.30;57.60;;;;;;4985505;28;20121;-13
2022/12/18 01:22:19;;;;;;;3.47;3.28;;;15.30;57.60;;;;;;4987013;28;20130;-13
2022/12/18 01:24:45;;;;;;;3.47;3.28;;;15.30;57.80;;;;;;4985427;28;20046;-12
2022/12/18 01:27:10;;;;;;;3.53;3.33;;;15.30;57.50;;;;;;4985354;28;20046;-12
2022/12/18 01:29:36;;;;;;;3.58;3.38;;;15.30;57.50;;;;;;4985450;28;20066;-14
2022/12/18 01:32:01;;;;;;;3.28;3.08;;;15.30;57.50;;;;;;4985761;28;20027;-13
2022/12/18 01:34:27;;;;;;;3.10;2.90;;;15.30;57.40;;;;;;4984532;28;20042;-12
2022/12/18 01:36:53;;;;;;;4.30;4.05;;;15.20;57.50;;;;;;4986407;28;20030;-13
2022/12/18 01:39:18;;;;;;;3.17;2.97;;;15.20;57.50;;;;;;4985477;28;20038;-13
2022/12/18 01:42:02;;;;;;;3.65;3.45;;;15.20;57.60;;;;;;4984202;28;20137;-13
2022/12/18 01:45:03;;;;;;;3.28;3.08;;;15.20;57.60;;;;;;4982517;28;20451;-14
2022/12/18 01:47:31;;;;;;;3.60;3.40;;;15.20;57.70;;;;;;4986007;28;20044;-13
2022/12/18 01:49:58;;;;;;;3.38;3.17;;;15.20;57.70;;;;;;4983389;28;20039;-13
2022/12/18 01:52:24;;;;;;;3.85;3.65;;;15.10;57.70;;;;;;5007536;28;20062;-12
2022/12/18 01:54:50;;;;;;;3.33;3.13;;;15.20;57.70;;;;;;4985089;28;20057;-13
2022/12/18 01:57:16;;;;;;;3.47;3.28;;;15.20;57.70;;;;;;4983323;28;20050;-13
2022/12/18 01:59:42;;;;;;;3.50;3.30;;;15.10;57.70;;;;;;4985517;28;20492;-13
2022/12/18 02:02:07;;;;;;;4.03;3.83;;;15.20;57.60;;;;;;4973956;28;20038;-18
2022/12/18 02:04:33;;;;;;;2.85;2.75;;;15.10;57.50;;;;;;4988259;28;20039;-12
2022/12/18 02:07:17;;;;;;;3.50;3.30;;;15.10;57.50;;;;;;4990894;28;20058;-12
2022/12/18 02:09:50;;;;;;;3.53;3.33;;;15.20;57.50;;;;;;4986110;28;20086;-18
2022/12/18 02:12:19;;;;;;;3.33;3.13;;;15.20;57.70;;;;;;4989437;28;20052;-12
2022/12/18 02:15:20;;;;;;;3.20;3.00;;;15.10;57.40;;;;;;4984815;28;20050;-12
2022/12/18 02:17:58;;;;;;;3.25;3.05;;;15.10;57.60;;;;;;4985453;28;20038;-14
2022/12/18 02:20:34;;;;;;;3.08;2.97;;;15.00;57.80;;;;;;4999260;28;20030;-13
2022/12/18 02:23:31;;;;;;;3.33;3.13;;;15.00;57.60;;;;;;4987601;28;20049;-12
2022/12/18 02:26:12;;;;;;;3.15;2.95;;;15.00;57.60;;;;;;4972011;28;20129;-15
2022/12/18 02:28:55;;;;;;;3.60;3.40;;;15.10;57.50;;;;;;4985529;28;20134;-13
2022/12/18 02:31:31;;;;;;;4.00;3.72;;;15.00;57.60;;;;;;4970058;28;20023;-12
2022/12/18 02:33:58;;;;;;;3.03;2.90;;;14.90;57.70;;;;;;4970331;28;20041;-16
2022/12/18 02:36:24;;;;;;;3.40;3.20;;;14.90;57.80;;;;;;4986518;28;20181;-12
2022/12/18 02:38:50;;;;;;;3.10;2.90;;;14.90;57.80;;;;;;4985365;28;20130;-13
2022/12/18 02:41:15;;;;;;;3.50;3.30;;;14.90;57.60;;;;;;4965616;28;20051;-13
2022/12/18 02:43:46;;;;;;;3.00;2.85;;;14.90;57.70;;;;;;4986179;28;20395;-13
2022/12/18 02:46:43;;;;;;;3.60;3.40;;;14.90;57.90;;;;;;4988075;28;20093;-13
2022/12/18 02:49:14;;;;;;;3.78;3.58;;;14.90;57.70;;;;;;4976444;28;20046;-13
2022/12/18 02:52:18;;;;;;;3.70;3.50;;;14.80;57.70;;;;;;4987978;28;20034;-13
2022/12/18 02:55:25;;;;;;;3.10;3.00;;;14.80;57.90;;;;;;4977523;28;20053;-12
2022/12/18 02:57:57;;;;;;;3.40;3.20;;;14.80;57.80;;;;;;4946321;28;20047;-15
2022/12/18 03:00:37;;;;;;;3.25;3.05;;;14.80;57.80;;;;;;4930672;28;20047;-14
2022/12/18 03:03:05;;;;;;;3.45;3.03;;;14.80;57.70;;;;;;4939032;28;20074;-19
2022/12/18 03:05:39;;;;;;;3.22;3.13;;;14.70;58.00;;;;;;4928618;28;20150;-14
2022/12/18 03:08:16;;;;;;;3.40;3.20;;;14.80;58.00;;;;;;4931883;29;20047;-13
2022/12/18 03:11:05;;;;;;;3.33;3.13;;;14.70;58.00;;;;;;4940084;28;20051;-13
2022/12/18 03:13:39;;;;;;;2.92;2.72;;;14.70;58.10;;;;;;4932095;28;20039;-12
2022/12/18 03:16:06;;;;;;;3.50;3.30;;;14.80;57.80;;;;;;4918971;28;20045;-20
2022/12/18 03:18:57;;;;;;;3.00;2.83;;;14.80;57.80;;;;;;4930165;28;20050;-13
2022/12/18 03:21:26;;;;;;;3.10;2.90;;;14.80;57.80;;;;;;4934214;28;20062;-12
2022/12/18 03:23:51;;;;;;;2.95;2.83;;;14.80;57.80;;;;;;4930804;28;20054;-13
2022/12/18 03:26:19;;;;;;;2.80;2.70;;;14.70;58.00;;;;;;4916241;28;20051;-15
2022/12/18 03:28:57;;;;;;;2.83;2.63;;;14.70;57.80;;;;;;4942778;28;20052;-13
2022/12/18 03:31:23;;;;;;;2.75;2.55;;;14.70;57.80;;;;;;4937138;28;20071;-12
2022/12/18 03:33:53;;;;;;;2.97;2.78;;;14.80;57.60;;;;;;4973800;28;20641;-13
2022/12/18 03:36:19;;;;;;;2.70;2.50;;;14.80;57.70;;;;;;4990979;28;20063;-12
2022/12/18 03:38:44;;;;;;;3.15;2.95;;;14.80;57.80;;;;;;4987157;28;20642;-12
2022/12/18 03:41:10;;;;;;;3.30;3.10;;;14.80;57.60;;;;;;4986576;28;20070;-12
2022/12/18 03:43:59;;;;;;;2.65;2.50;;;14.70;57.80;;;;;;4986914;28;20467;-12
2022/12/18 03:46:33;;;;;;;2.65;2.55;;;14.70;57.80;;;;;;4988141;28;20038;-12
2022/12/18 03:49:23;;;;;;;2.80;2.70;;;14.80;57.70;;;;;;5009847;28;20088;-12
2022/12/18 03:52:22;;;;;;;3.05;2.95;;;14.80;57.50;;;;;;4989589;28;20042;-12
2022/12/18 03:54:47;;;;;;;3.33;3.13;;;14.70;57.90;;;;;;4982538;28;20080;-12
2022/12/18 03:57:19;;;;;;;2.97;2.78;;;14.70;58.00;;;;;;4986274;28;20058;-13
2022/12/18 03:59:45;;;;;;;2.50;2.40;;;14.70;57.80;;;;;;4988585;28;20043;-13
2022/12/18 04:02:11;;;;;;;3.05;2.85;;;14.70;57.50;;;;;;4986689;28;20054;-12
2022/12/18 04:04:37;;;;;;;3.00;2.90;;;14.70;57.60;;;;;;5011833;28;20170;-14
2022/12/18 04:07:03;;;;;;;2.80;2.70;;;14.60;57.70;;;;;;4986103;28;20479;-13
2022/12/18 04:09:28;;;;;;;2.75;2.60;;;14.70;57.70;;;;;;5007684;28;20445;-13
2022/12/18 04:11:54;;;;;;;3.10;3.00;;;14.80;57.60;;;;;;4968186;28;20133;-14
2022/12/18 04:14:19;;;;;;;3.45;3.25;;;14.70;57.80;;;;;;4988083;28;20042;-12
2022/12/18 04:16:45;;;;;;;3.05;2.85;;;14.70;57.90;;;;;;4989299;28;20108;-13
2022/12/18 04:19:11;;;;;;;2.63;2.53;;;14.70;58.40;;;;;;4988126;28;20124;-14
2022/12/18 04:21:36;;;;;;;2.88;2.67;;;14.70;57.50;;;;;;4983528;28;20284;-20
2022/12/18 04:24:02;;;;;;;2.78;2.58;;;14.80;57.50;;;;;;4985978;28;20444;-12
2022/12/18 04:26:27;;;;;;;2.58;2.47;;;14.80;57.20;;;;;;4987301;28;20043;-15
2022/12/18 04:28:53;;;;;;;2.70;2.60;;;14.70;57.50;;;;;;4988611;28;20118;-12
2022/12/18 04:31:19;;;;;;;2.70;2.60;;;14.70;57.50;;;;;;4984797;28;20637;-12
2022/12/18 04:33:44;;;;;;;2.78;2.67;;;14.60;57.60;;;;;;4986258;28;20035;-13
2022/12/18 04:36:12;;;;;;;3.33;3.13;;;14.60;57.60;;;;;;4988323;28;20035;-13
2022/12/18 04:38:37;;;;;;;2.47;2.38;;;14.70;57.50;;;;;;4983626;28;20549;-12
2022/12/18 04:41:03;;;;;;;2.72;2.63;;;14.70;57.60;;;;;;4986263;28;20546;-13
2022/12/18 04:43:29;;;;;;;2.60;2.50;;;14.70;57.50;;;;;;4987086;28;20400;-13
2022/12/18 04:46:04;;;;;;;2.40;2.30;;;14.70;57.50;;;;;;4986994;28;20046;-12
2022/12/18 04:48:30;;;;;;;3.08;2.80;;;14.70;57.50;;;;;;4987102;28;20031;-13
2022/12/18 04:50:55;;;;;;;2.20;2.10;;;14.60;57.70;;;;;;4987526;28;20129;-13
2022/12/18 04:53:21;;;;;;;2.97;2.78;;;14.60;57.60;;;;;;4990685;28;20035;-12
2022/12/18 04:55:47;;;;;;;2.30;2.20;;;14.70;57.50;;;;;;5010034;28;20108;-13
2022/12/18 04:58:12;;;;;;;2.63;2.53;;;14.70;57.50;;;;;;4986917;28;20034;-12
2022/12/18 05:00:38;;;;;;;2.45;2.35;;;14.50;57.60;;;;;;4985570;28;20443;-12
2022/12/18 05:03:03;;;;;;;2.75;2.63;;;14.60;57.70;;;;;;4984208;28;20112;-12
2022/12/18 05:05:29;;;;;;;2.63;2.53;;;14.60;57.60;;;;;;4989426;28;20041;-19
2022/12/18 05:07:54;;;;;;;2.95;2.75;;;14.60;57.60;;;;;;4993505;28;21020;-15
2022/12/18 05:10:20;;;;;;;2.65;2.55;;;14.60;57.50;;;;;;4994871;28;20070;-12
2022/12/18 05:12:58;;;;;;;2.92;2.83;;;14.60;57.40;;;;;;4988169;28;20403;-15
2022/12/18 05:15:28;;;;;;;3.20;3.00;;;14.60;57.40;;;;;;4984047;28;20104;-15
2022/12/18 05:17:53;;;;;;;3.00;2.90;;;14.60;57.40;;;;;;4981891;28;20050;-15
2022/12/18 05:20:19;;;;;;;2.97;2.88;;;14.50;57.70;;;;;;4986545;28;20053;-14
2022/12/18 05:22:45;;;;;;;3.03;2.83;;;14.50;57.70;;;;;;4984458;28;20120;-12
2022/12/18 05:25:10;;;;;;;2.85;2.75;;;14.50;57.50;;;;;;4989769;28;20038;-14
2022/12/18 05:27:36;;;;;;;2.85;2.75;;;14.50;57.70;;;;;;4984031;28;20052;-13
2022/12/18 05:30:01;;;;;;;2.80;2.70;;;14.50;57.70;;;;;;4983938;28;20039;-13
2022/12/18 05:32:27;;;;;;;2.42;2.33;;;14.50;57.60;;;;;;4986910;28;20046;-12
2022/12/18 05:34:53;;;;;;;3.08;2.88;;;14.50;57.40;;;;;;4990523;28;20516;-13
2022/12/18 05:37:18;;;;;;;3.00;2.90;;;14.50;57.50;;;;;;4993385;28;20050;-13
2022/12/18 05:39:44;;;;;;;2.65;2.55;;;14.50;57.40;;;;;;4990811;28;20038;-13
2022/12/18 05:42:09;;;;;;;2.80;2.60;;;14.50;57.40;;;;;;4987594;28;20535;-12
2022/12/18 05:44:35;;;;;;;2.70;2.60;;;14.60;57.40;;;;;;4991923;28;20070;-12
2022/12/18 05:47:00;;;;;;;2.90;2.80;;;14.40;57.50;;;;;;4993523;28;20046;-14
2022/12/18 05:49:26;;;;;;;2.65;2.55;;;14.50;57.60;;;;;;4990765;28;20902;-13
2022/12/18 05:51:52;;;;;;;2.70;2.60;;;14.50;57.50;;;;;;4989127;28;20451;-13
2022/12/18 05:54:17;;;;;;;2.47;2.38;;;14.50;57.40;;;;;;4990477;28;20050;-13
2022/12/18 05:56:43;;;;;;;2.95;2.75;;;14.50;57.40;;;;;;4986079;28;20133;-13
2022/12/18 05:59:09;;;;;;;2.50;2.40;;;14.60;57.40;;;;;;4987381;28;20074;-12
2022/12/18 06:01:35;;;;;;;2.60;2.50;;;14.60;57.30;;;;;;4988043;28;20065;-12
2022/12/18 06:04:00;;;;;;;2.45;2.35;;;14.50;57.20;;;;;;4987457;28;20496;-12
2022/12/18 06:06:27;;;;;;;2.40;2.30;;;14.70;57.10;;;;;;4991038;28;20042;-12
2022/12/18 06:08:52;;;;;;;2.80;2.60;;;14.60;57.20;;;;;;4988143;28;20058;-12
2022/12/18 06:11:22;;;;;;;2.70;2.60;;;14.50;57.20;;;;;;4997472;28;20050;-12
2022/12/18 06:13:55;;;;;;;2.30;2.20;;;14.50;57.40;;;;;;4984936;28;20069;-12
2022/12/18 06:16:20;;;;;;;3.75;2.78;;;14.40;57.30;;;;;;4986449;28;20043;-15
2022/12/18 06:18:46;;;;;;;2.30;2.20;;;14.50;57.30;;;;;;4987684;28;20062;-12
2022/12/18 06:21:11;;;;;;;2.78;2.67;;;14.50;57.40;;;;;;4991609;28;20584;-12
2022/12/18 06:23:37;;;;;;;2.55;2.45;;;14.50;57.40;;;;;;4986053;28;20053;-13
2022/12/18 06:26:07;;;;;;;2.08;1.98;;;14.40;57.30;;;;;;4989233;28;20089;-12
2022/12/18 06:28:32;;;;;;;2.40;2.30;;;14.50;57.40;;;;;;4987749;28;20046;-14
2022/12/18 06:30:58;;;;;;;2.40;2.30;;;14.50;57.40;;;;;;4991815;28;20053;-13
2022/12/18 06:33:26;;;;;;;2.60;2.50;;;14.30;57.60;;;;;;4989506;28;20419;-12
2022/12/18 06:35:51;;;;;;;2.42;2.33;;;14.30;57.60;;;;;;4989147;28;20910;-16
2022/12/18 06:38:17;;;;;;;2.22;2.13;;;14.40;57.30;;;;;;4990424;28;20050;-12
2022/12/18 06:40:43;;;;;;;2.83;1.98;;;14.30;57.40;;;;;;4989228;28;20038;-13
2022/12/18 06:43:08;;;;;;;2.75;2.55;;;14.40;57.30;;;;;;4991311;28;20049;-13
2022/12/18 06:45:34;;;;;;;2.20;2.10;;;14.40;57.30;;;;;;4992774;28;20048;-12
2022/12/18 06:47:59;;;;;;;2.40;2.30;;;14.40;57.60;;;;;;4989364;28;20138;-14
2022/12/18 06:50:25;;;;;;;2.25;2.15;;;14.40;57.50;;;;;;4990327;28;20067;-12
2022/12/18 06:52:51;;;;;;;1.90;1.80;;;14.40;57.40;;;;;;4987584;28;20038;-13
2022/12/18 06:55:16;;;;;;;2.42;2.33;;;14.40;57.30;;;;;;4991438;28;20049;-13
2022/12/18 06:57:42;;;;;;;2.60;2.50;;;14.40;57.40;;;;;;4988129;28;20047;-13
2022/12/18 07:00:08;;;;;;;2.15;2.05;;;14.50;57.40;;;;;;4991922;28;20081;-12
2022/12/18 07:02:34;;;;;;;1.95;1.85;;;14.40;57.30;;;;;;4988100;28;20475;-17
2022/12/18 07:05:00;;;;;;;2.40;2.30;;;14.50;57.30;;;;;;4990094;28;20038;-12
2022/12/18 07:07:25;;;;;;;2.17;2.08;;;14.40;57.40;;;;;;4989734;28;20042;-13
2022/12/18 07:09:51;;;;;;;2.28;2.17;;;14.40;57.30;;;;;;4983793;28;20053;-13
2022/12/18 07:12:17;;;;;;;2.05;1.95;;;14.30;57.30;;;;;;4989245;28;20129;-16
2022/12/18 07:14:42;;;;;;;2.70;2.50;;;14.40;57.40;;;;;;4985825;28;20475;-12
2022/12/18 07:17:08;;;;;;;2.45;2.35;;;14.50;57.30;;;;;;4989873;28;20046;-13
2022/12/18 07:19:34;;;;;;;2.17;2.08;;;14.40;57.30;;;;;;4991042;28;20092;-13
2022/12/18 07:22:00;;;;;;;2.47;2.38;;;14.50;57.30;;;;;;4991308;28;20597;-13
2022/12/18 07:24:25;;;;;;;2.20;2.10;;;14.50;57.10;;;;;;4987975;28;20440;-24
2022/12/18 07:26:51;;;;;;;2.20;2.10;;;14.50;57.10;;;;;;4989963;28;20052;-12
2022/12/18 07:29:16;;;;;;;2.50;2.40;;;14.50;57.20;;;;;;4989743;28;20046;-12
2022/12/18 07:31:42;;;;;;;2.40;2.20;;;14.40;57.30;;;;;;4987600;28;20369;-13
2022/12/18 07:34:11;;;;;;;2.40;2.30;;;14.50;57.20;;;;;;4989314;28;20026;-13
2022/12/18 07:36:37;;;;;;;2.20;2.10;;;14.50;57.20;;;;;;4990022;28;20077;-14
2022/12/18 07:39:03;;;;;;;2.20;2.10;;;14.40;57.40;;;;;;4983395;28;20438;-13
2022/12/18 07:41:28;;;;;;;2.25;2.10;;;14.40;57.30;;;;;;4986663;28;20058;-14
2022/12/18 07:43:54;;;;;;;2.08;1.98;;;14.40;57.40;;;;;;4988129;28;20129;-13
2022/12/18 07:46:19;;;;;;;2.20;2.10;;;14.30;57.50;;;;;;4988247;28;20054;-14
2022/12/18 07:48:45;;;;;;;2.05;1.95;;;14.30;57.30;;;;;;4987377;28;20034;-14
2022/12/18 07:51:10;;;;;;;2.20;2.10;;;14.40;57.30;;;;;;4988580;28;20117;-13
2022/12/18 07:53:36;;;;;;;2.10;2.00;;;14.40;57.20;;;;;;4985431;28;20508;-14
2022/12/18 07:56:04;;;;;;;2.40;2.30;;;14.40;57.20;;;;;;4987340;28;20046;-12
2022/12/18 07:58:30;;;;;;;2.10;2.00;;;14.30;57.30;;;;;;4988440;28;20058;-14
2022/12/18 08:01:22;;;;;;;2.45;2.35;;;14.20;57.60;;;;;;4984634;28;20046;-13
2022/12/18 08:03:48;;;;;;;2.10;2.00;;;14.30;57.70;;;;;;4984112;28;20046;-12
2022/12/18 08:06:13;;;;;;;2.35;2.25;;;14.20;57.60;;;;;;4989016;28;20097;-12
2022/12/18 08:08:41;;;;;;;1.95;1.85;;;14.20;57.60;;;;;;4982969;28;20412;-14
2022/12/18 08:11:06;;;;;;;2.22;2.13;;;14.30;57.50;;;;;;4992807;28;20080;-13
2022/12/18 08:13:32;;;;;;;2.47;2.35;;;14.40;57.30;;;;;;4989054;28;20077;-13
2022/12/18 08:15:59;;;;;;;2.03;1.92;;;14.30;57.30;;;;;;4990607;28;20038;-14
2022/12/18 08:18:25;;;;;;;2.40;2.30;;;14.30;57.40;;;;;;4984823;28;20121;-12
2022/12/18 08:20:50;;;;;;;2.20;2.10;;;14.30;57.50;;;;;;4987126;28;20042;-15
2022/12/18 08:23:16;;;;;;;2.50;2.40;;;14.20;57.60;;;;;;4987964;28;20061;-12
2022/12/18 08:25:41;;;;;;;2.33;2.22;;;14.20;57.40;;;;;;4987106;28;20041;-13
2022/12/18 08:28:07;;;;;;;3.15;2.30;;;14.30;57.40;;;;;;4985324;28;20497;-12
2022/12/18 08:30:33;;;;;;;2.05;1.90;;;14.30;57.30;;;;;;4986566;28;20031;-16
2022/12/18 08:32:58;;;;;;;2.17;2.08;;;14.30;57.40;;;;;;4989413;28;20472;-12
2022/12/18 08:35:24;;;;;;;2.00;1.90;;;14.30;57.30;;;;;;4990020;28;20038;-12
2022/12/18 08:37:50;;;;;;;2.03;1.92;;;14.10;57.70;;;;;;4985480;28;20555;-13
2022/12/18 08:40:15;;;;;;;2.65;2.45;;;14.10;57.60;;;;;;4986652;28;20050;-13
2022/12/18 08:45:45;;;;;;;2.15;2.05;;;14.20;57.50;;;;;;4949437;28;20039;-13
2022/12/18 08:48:10;;;;;;;2.47;2.38;;;14.20;57.60;;;;;;4948895;28;20043;-12
2022/12/18 08:50:37;;;;;;;2.10;2.00;;;14.20;57.40;;;;;;4950896;28;20083;-15
2022/12/18 08:53:03;;;;;;;2.22;2.13;;;14.30;57.30;;;;;;4944451;28;20050;-13
2022/12/18 08:55:28;;;;;;;2.25;2.05;;;14.40;57.40;;;;;;4946071;28;20067;-13
2022/12/18 08:57:54;;;;;;;2.10;2.00;;;14.30;57.50;;;;;;4932666;28;20043;-13
2022/12/18 09:00:20;;;;;;;2.67;2.47;;;14.30;57.40;;;;;;4949579;28;20055;-13
2022/12/18 09:02:45;;;;;;;2.80;2.58;;;14.30;57.50;;;;;;4948115;28;20043;-13
2022/12/18 09:05:11;;;;;;;2.65;2.45;;;14.40;58.40;;;;;;4952992;28;20122;-14
2022/12/18 09:07:37;;;;;;;2.20;2.10;;;14.40;57.90;;;;;;4946341;28;20043;-13
2022/12/18 09:10:03;;;;;;;2.70;2.50;;;14.40;58.10;;;;;;4949778;28;20232;-13
2022/12/18 09:12:28;;;;;;;2.95;2.75;;;14.40;58.80;;;;;;4948452;28;20057;-14
2022/12/18 09:14:54;;;;;;;2.55;2.38;;;14.30;59.10;;;;;;4947167;28;20629;-14
2022/12/18 09:17:19;;;;;;;3.00;2.80;;;14.60;60.00;;;;;;4982759;28;20046;-12
2022/12/18 09:19:45;;;;;;;2.63;2.42;;;14.50;59.10;;;;;;4985470;28;20050;-12
2022/12/18 09:22:11;;;;;;;3.33;2.85;;;14.50;59.60;;;;;;4988298;28;20039;-13
2022/12/18 09:24:36;;;;;;;3.03;2.85;;;14.70;59.80;;;;;;4989644;28;20042;-13
2022/12/18 09:27:02;;;;;;;2.78;2.58;;;14.80;60.50;;;;;;4985939;28;20480;-13
2022/12/18 09:29:28;;;;;;;4.35;2.25;;;14.70;60.70;;;;;;4987773;28;20061;-13
2022/12/18 09:31:54;;;;;;;2.58;2.38;;;14.70;61.50;;;;;;4981681;28;20049;-13
2022/12/18 09:34:21;;;;;;;2.83;2.42;;;14.70;60.60;;;;;;4984510;28;20050;-13
2022/12/18 09:36:47;;;;;;;3.30;2.50;;;14.80;61.50;;;;;;4985287;28;20054;-15
2022/12/18 09:39:12;;;;;;;3.00;2.80;;;14.70;61.70;;;;;;4988349;28;20050;-13
2022/12/18 09:41:53;;;;;;;2.80;2.60;;;14.70;61.10;;;;;;4988777;28;20052;-14
2022/12/18 09:44:35;;;;;;;3.30;2.50;;;14.70;61.40;;;;;;5007851;28;20046;-16
2022/12/18 09:47:20;;;;;;;2.75;2.38;;;14.70;61.70;;;;;;4983992;28;20051;-13
2022/12/18 09:49:47;;;;;;;3.05;2.30;;;14.60;62.40;;;;;;4981708;28;20121;-15
2022/12/18 09:52:19;;;;;;;2.50;2.30;;;14.70;62.40;;;;;;4987946;28;20101;-13
2022/12/18 09:55:01;;;;;;;3.85;2.78;;;14.60;62.50;;;;;;4984730;28;20034;-14
2022/12/18 09:57:28;;;;;;;2.97;2.25;;;14.50;62.60;;;;;;5011120;28;20046;-12
2022/12/18 10:00:02;;;;;;;2.85;2.55;;;14.60;62.60;;;;;;4988031;28;20037;-12
2022/12/18 10:02:30;;;;;;;2.63;2.42;;;14.60;62.40;;;;;;4989721;28;20034;-13
2022/12/18 10:05:10;;;;;;;3.00;2.50;;;14.80;62.10;;;;;;4986301;28;20129;-12
2022/12/18 10:08:00;;;;;;;3.10;2.90;;;14.70;62.30;;;;;;4983659;28;20050;-12
2022/12/18 10:10:38;;;;;;;2.83;2.60;;;14.70;62.40;;;;;;4996173;28;20096;-12
2022/12/18 10:13:07;;;;;;;2.22;2.13;;;14.60;62.80;;;;;;4989924;28;20050;-13
2022/12/18 10:15:59;;;;;;;2.58;2.47;;;14.60;63.00;;;;;;4987696;28;20411;-12
2022/12/18 10:18:37;;;;;;;2.78;2.67;;;14.70;62.70;;;;;;4989297;28;20503;-15
2022/12/18 10:21:11;;;;;;;2.20;2.10;;;14.70;62.60;;;;;;4989449;28;20121;-14
2022/12/18 10:23:58;;;;;;;2.40;2.20;;;14.70;62.80;;;;;;4988624;28;20038;-12
2022/12/18 10:26:23;;;;;;;3.30;2.10;;;14.70;62.80;;;;;;4986421;28;20573;-12
2022/12/18 10:28:49;;;;;;;3.85;2.63;;;14.70;62.90;;;;;;4988323;28;20042;-16
2022/12/18 10:31:20;;;;;;;2.30;2.10;;;14.80;62.80;;;;;;4989672;28;20077;-13
2022/12/18 10:33:45;;;;;;;3.00;2.80;;;14.80;62.50;;;;;;4990572;28;20109;-13
2022/12/18 10:36:11;;;;;;;3.55;2.63;;;14.90;63.00;;;;;;4989116;28;20110;-12
2022/12/18 10:38:37;;;;;;;4.00;2.72;;;15.00;62.60;;;;;;4991262;28;20157;-13
2022/12/18 10:41:27;;;;;;;5.93;2.70;;;14.90;62.90;;;;;;4989804;28;20092;-13
2022/12/18 10:44:10;;;;;;;3.25;2.85;;;14.80;63.90;;;;;;4989000;28;20069;-13
2022/12/18 10:46:35;;;;;;;3.83;2.88;;;15.00;63.30;;;;;;4990690;28;20176;-12
2022/12/18 10:49:01;;;;;;;2.58;2.40;;;14.90;63.50;;;;;;4988352;28;20469;-13
2022/12/18 10:51:33;;;;;;;3.30;2.63;;;14.90;63.60;;;;;;4988602;28;20038;-12
2022/12/18 10:54:02;;;;;;;2.25;2.15;;;14.80;63.70;;;;;;4988797;28;20124;-13
2022/12/18 10:56:28;;;;;;;2.80;2.45;;;14.80;63.60;;;;;;4988578;28;20534;-12
2022/12/18 10:59:08;;;;;;;2.92;2.45;;;14.80;63.70;;;;;;4990085;28;20062;-15
2022/12/18 11:01:54;;;;;;;2.70;2.50;;;14.90;63.40;;;;;;4994800;28;20198;-13
2022/12/18 11:04:40;;;;;;;2.63;2.42;;;14.80;63.70;;;;;;4971696;28;20045;-12
2022/12/18 11:07:07;;;;;;;3.88;2.25;;;15.00;63.20;;;;;;5010124;28;20046;-13
2022/12/18 11:09:34;;;;;;;2.70;2.33;;;15.00;62.90;;;;;;4988479;28;20289;-13
2022/12/18 11:12:05;;;;;;;2.92;2.58;;;15.00;63.00;;;;;;4976658;28;20069;-14
2022/12/18 11:14:33;;;;;;;4.65;2.80;;;14.90;63.00;;;;;;4992357;28;20117;-13
2022/12/18 11:16:59;;;;;;;3.10;2.80;;;15.00;63.90;;;;;;4960851;28;20164;-12
2022/12/18 11:19:25;;;;;;;2.88;2.67;;;15.00;63.10;;;;;;4995313;28;20048;-12
2022/12/18 11:21:51;;;;;;;2.88;2.60;;;15.10;63.10;;;;;;4978952;28;20042;-15
2022/12/18 11:24:35;;;;;;;5.07;2.85;;;15.10;63.00;;;;;;4971486;28;20205;-12
2022/12/18 11:27:02;;;;;;;5.80;2.55;;;15.00;63.10;;;;;;4988107;28;20058;-13
2022/12/18 11:29:36;;;;;;;2.60;2.30;;;14.90;63.90;;;;;;5005018;28;20041;-13
2022/12/18 11:32:24;;;;;;;5.47;2.55;;;14.90;64.10;;;;;;4971730;28;20463;-12
2022/12/18 11:34:52;;;;;;;2.58;2.38;;;15.00;63.90;;;;;;4989897;28;20067;-12
2022/12/18 11:37:21;;;;;;;3.85;3.00;;;14.90;64.00;;;;;;4973734;28;20730;-12
2022/12/18 11:39:50;;;;;;;2.53;2.42;;;14.90;64.10;;;;;;4974264;28;20467;-12
2022/12/18 11:42:25;;;;;;;3.25;2.70;;;14.90;64.30;;;;;;4961340;28;20519;-14
2022/12/18 11:44:52;;;;;;;4.10;2.72;;;14.90;64.10;;;;;;4974517;28;20629;-13
2022/12/18 11:47:49;;;;;;;3.05;2.85;;;14.80;64.30;;;;;;4977155;28;20046;-16
2022/12/18 11:50:23;;;;;;;2.63;2.53;;;14.80;64.60;;;;;;4651631;28;10001382;-12
2022/12/18 11:52:49;;;;;;;3.42;2.90;;;14.80;64.30;;;;;;4628798;28;10000636;-14
2022/12/18 11:55:50;;;;;;;3.15;2.50;;;14.80;64.60;;;;;;4977892;28;20050;-15
2022/12/18 11:58:21;;;;;;;3.58;2.60;;;14.80;64.80;;;;;;4969729;28;20050;-13
2022/12/18 12:01:00;;;;;;;2.80;2.70;;;14.80;64.80;;;;;;4975969;28;20047;-12
2022/12/18 12:04:04;;;;;;;4.25;2.72;;;14.80;64.60;;;;;;4976258;28;20050;-13
2022/12/18 12:06:38;;;;;;;3.00;2.70;;;14.80;64.90;;;;;;4974821;28;20054;-13
2022/12/18 12:09:44;;;;;;;2.78;2.40;;;14.80;64.80;;;;;;4978474;28;20523;-18
2022/12/18 12:12:45;;;;;;;4.35;2.50;;;14.80;64.70;;;;;;4978853;28;20053;-13
2022/12/18 12:15:37;;;;;;;2.60;2.40;;;14.80;64.90;;;;;;4977254;28;20050;-12
2022/12/18 12:18:34;;;;;;;2.38;2.25;;;14.80;64.80;;;;;;4975061;28;20061;-12
2022/12/18 12:21:27;;;;;;;2.40;2.30;;;14.90;64.50;;;;;;4978044;28;20468;-12
2022/12/18 12:24:11;;;;;;;2.83;2.53;;;14.80;64.60;;;;;;4973827;28;20515;-13
2022/12/18 12:27:04;;;;;;;2.55;2.38;;;14.80;64.80;;;;;;5001623;28;20534;-13
2022/12/18 12:29:48;;;;;;;3.33;2.80;;;15.00;64.40;;;;;;4993271;28;20074;-13
2022/12/18 12:32:26;;;;;;;6.03;3.00;;;15.10;63.80;;;;;;4977523;28;20507;-13
2022/12/18 12:35:00;;;;;;;2.85;2.65;;;15.10;64.00;;;;;;4979421;28;20084;-13
2022/12/18 12:37:48;;;;;;;3.40;2.40;;;15.10;63.90;;;;;;4977753;28;20049;-12
2022/12/18 12:40:17;;;;;;;2.80;2.65;;;15.00;64.00;;;;;;5001020;28;20054;-12
2022/12/18 12:43:13;;;;;;;2.28;2.17;;;14.80;64.40;;;;;;4992742;28;20054;-12
2022/12/18 12:45:39;;;;;;;2.88;2.67;;;14.80;64.60;;;;;;4976914;28;20046;-23
2022/12/18 12:48:05;;;;;;;3.17;2.35;;;14.80;64.60;;;;;;4974220;28;20068;-12
2022/12/18 12:50:31;;;;;;;2.83;2.60;;;15.00;64.20;;;;;;4987573;28;20047;-13
2022/12/18 12:52:57;;;;;;;2.40;2.20;;;14.90;64.00;;;;;;5000646;28;20046;-13
2022/12/18 12:55:24;;;;;;;2.58;2.38;;;14.90;64.30;;;;;;5004892;28;20053;-12
2022/12/18 12:57:52;;;;;;;2.35;2.20;;;14.80;64.50;;;;;;4990612;28;20057;-15
2022/12/18 13:00:19;;;;;;;2.22;2.13;;;14.70;64.60;;;;;;4974573;28;20066;-13
2022/12/18 13:02:50;;;;;;;2.47;2.25;;;14.70;64.60;;;;;;4989904;28;20042;-13
2022/12/18 13:05:29;;;;;;;2.95;2.75;;;14.80;64.40;;;;;;4979239;28;20050;-14